Stormwatcher's Retreat Logo




                  Temp     Hi    Low   Out    Dew  Wind  Wind   Wind    Hi    Hi   Wind   Heat    THW   THSW                Rain  Solar   Solar Hi Solar   UV    UV    Hi     Heat    Cool    In     In    In     In     In   In Air          Wind  Wind    ISS   Arc.
  Date    Time     Out   Temp   Temp   Hum    Pt. Speed   Dir    Run Speed   Dir  Chill  Index  Index  Index   Bar    Rain  Rate   Rad.  Energy    Rad.  Index  Dose   UV     D-D     D-D    Temp   Hum    Dew   Heat    EMC Density     ET   Samp   Tx   Recept  Int.
------------------------------------------------------------------------------------------------------------------------------------------------------------------------------------------------------------------------------------------------------------------------
 4/24/18 12:10a   62.9   63.3   62.9    39   37.5  14.0     N   2.33  24.0     N   58.2   60.1   55.4   52.6  30.002  0.00  0.00     0     0.00      0     0.0  0.00   0.0   0.015   0.000   70.9    47   49.7   69.2   8.75  .0741    0.000   210    5    100.0   10 
 4/24/18 12:20a   63.0   63.0   62.9    38   37.0  13.0     N   2.17  21.0     N   58.7   60.1   55.8   52.9  29.998  0.00  0.00     0     0.00      0     0.0  0.00   0.0   0.014   0.000   70.9    47   49.7   69.2   8.75  .0741    0.000   210    5    100.0   10 
 4/24/18 12:30a   63.2   63.2   63.0    37   36.5  15.0     N   2.50  22.0     N   58.2   60.2   55.2   52.4  29.996  0.00  0.00     0     0.00      0     0.0  0.00   0.0   0.012   0.000   70.9    46   49.1   69.1   8.63  .0741    0.000   210    5    100.0   10 
 4/24/18 12:40a   63.2   63.2   63.1    37   36.5  15.0     N   2.50  24.0     N   58.2   60.2   55.2   52.4  29.993  0.00  0.00     0     0.00      0     0.0  0.00   0.0   0.012   0.000   70.9    46   49.1   69.1   8.63  .0741    0.000   211    5    100.0   10 
 4/24/18 12:50a   63.1   63.2   62.9    36   35.7  14.0     N   2.33  21.0     N   58.4   60.0   55.3   52.5  29.996  0.00  0.00     0     0.00      0     0.0  0.00   0.0   0.013   0.000   70.9    46   49.1   69.1   8.63  .0741    0.000   213    5    100.0   10 
 4/24/18  1:00a   63.2   63.2   63.1    36   35.8  15.0     N   2.50  21.0     N   58.2   60.1   55.1   52.3  29.994  0.00  0.00     0     0.00      0     0.0  0.00   0.0   0.012   0.000   70.8    46   49.0   68.9   8.63  .0741    0.008   211    5    100.0   10 
 4/24/18  1:10a   63.0   63.2   63.0    35   34.9  15.0     N   2.50  23.0     N   58.0   59.8   54.8   52.0  29.990  0.00  0.00     0     0.00      0     0.0  0.00   0.0   0.014   0.000   70.8    46   49.0   68.9   8.63  .0741    0.000   212    5    100.0   10 
 4/24/18  1:20a   62.7   63.0   62.7    36   35.3  15.0     N   2.50  25.0     N   57.6   59.6   54.5   51.7  29.992  0.00  0.00     0     0.00      0     0.0  0.00   0.0   0.016   0.000   70.8    46   49.0   68.9   8.63  .0741    0.000   213    5    100.0   10 
 4/24/18  1:30a   62.6   62.7   62.5    35   34.5  15.0     N   2.50  24.0     N   57.5   59.4   54.3   51.5  29.989  0.00  0.00     0     0.00      0     0.0  0.00   0.0   0.017   0.000   70.8    46   49.0   68.9   8.63  .0741    0.000   213    5    100.0   10 
 4/24/18  1:40a   62.5   62.7   62.5    35   34.5  15.0     N   2.50  25.0     N   57.4   59.3   54.2   51.4  29.989  0.00  0.00     0     0.00      0     0.0  0.00   0.0   0.017   0.000   70.7    46   48.9   68.8   8.64  .0741    0.000   212    5    100.0   10 
 4/24/18  1:50a   62.3   62.5   62.3    35   34.3  14.0     N   2.33  22.0     N   57.5   59.1   54.3   51.4  29.988  0.00  0.00     0     0.00      0     0.0  0.00   0.0   0.019   0.000   70.7    46   48.9   68.8   8.64  .0741    0.000   211    5    100.0   10 
 4/24/18  2:00a   62.4   62.5   62.3    34   33.6  15.0     N   2.50  25.0     N   57.3   59.1   54.0   51.2  29.988  0.00  0.00     0     0.00      0     0.0  0.00   0.0   0.018   0.000   70.7    46   48.9   68.8   8.64  .0741    0.008   213    5    100.0   10 
 4/24/18  2:10a   62.4   62.5   62.3    34   33.6  15.0     N   2.50  24.0     N   57.3   59.1   54.0   51.2  29.988  0.00  0.00     0     0.00      0     0.0  0.00   0.0   0.018   0.000   70.7    46   48.9   68.8   8.64  .0741    0.000   209    5    100.0   10 
 4/24/18  2:20a   62.3   62.4   62.3    34   33.6  15.0     N   2.50  22.0     N   57.2   59.0   53.9   51.1  29.986  0.00  0.00     0     0.00      0     0.0  0.00   0.0   0.019   0.000   70.6    46   48.8   68.7   8.64  .0741    0.000   212    5    100.0   10 
 4/24/18  2:30a   62.2   62.3   62.2    34   33.5  15.0     N   2.50  22.0     N   57.0   58.9   53.7   50.9  29.989  0.00  0.00     0     0.00      0     0.0  0.00   0.0   0.019   0.000   70.6    46   48.8   68.7   8.64  .0741    0.000   213    5    100.0   10 
 4/24/18  2:40a   62.0   62.2   62.0    34   33.3  16.0     N   2.67  25.0     N   56.5   58.7   53.2   50.5  29.985  0.00  0.00     0     0.00      0     0.0  0.00   0.0   0.021   0.000   70.6    46   48.8   68.7   8.64  .0741    0.000   210    5    100.0   10 
 4/24/18  2:50a   61.8   62.0   61.7    34   33.1  15.0     N   2.50  24.0     N   56.6   58.5   53.3   50.5  29.979  0.00  0.00     0     0.00      0     0.0  0.00   0.0   0.022   0.000   70.5    46   48.7   68.6   8.64  .0741    0.000   210    5    100.0   10 
 4/24/18  3:00a   61.6   61.8   61.6    34   32.9  16.0     N   2.67  22.0     N   56.1   58.3   52.8   50.0  29.978  0.00  0.00     0     0.00      0     0.0  0.00   0.0   0.024   0.000   70.5    46   48.7   68.6   8.64  .0741    0.008   214    5    100.0   10 
 4/24/18  3:10a   61.6   61.6   61.5    33   32.2  16.0     N   2.67  29.0     N   56.1   58.2   52.7   50.0  29.971  0.00  0.00     0     0.00      0     0.0  0.00   0.0   0.024   0.000   70.5    46   48.7   68.6   8.64  .0741    0.000   209    5    100.0   10 
 4/24/18  3:20a   61.5   61.6   61.4    33   32.1  16.0     N   2.67  29.0     N   56.0   58.1   52.6   49.8  29.974  0.00  0.00     0     0.00      0     0.0  0.00   0.0   0.024   0.000   70.5    46   48.7   68.6   8.64  .0741    0.000   211    5    100.0   10 
 4/24/18  3:30a   61.4   61.6   61.3    33   32.0  16.0     N   2.67  23.0     N   55.8   58.0   52.4   49.6  29.972  0.00  0.00     0     0.00      0     0.0  0.00   0.0   0.025   0.000   70.4    46   48.6   68.4   8.64  .0741    0.000   212    5    100.0   10 
 4/24/18  3:40a   61.1   61.4   61.1    34   32.5  16.0     N   2.67  26.0     N   55.5   57.8   52.2   49.5  29.971  0.00  0.00     0     0.00      0     0.0  0.00   0.0   0.027   0.000   70.4    46   48.6   68.4   8.64  .0741    0.000   212    5    100.0   10 
 4/24/18  3:50a   61.0   61.1   61.0    34   32.4  16.0     N   2.67  25.0     N   55.4   57.7   52.1   49.4  29.974  0.00  0.00     0     0.00      0     0.0  0.00   0.0   0.028   0.000   70.4    46   48.6   68.4   8.64  .0741    0.000   209    5    100.0   10 
 4/24/18  4:00a   60.9   61.1   60.9    34   32.3  17.0     N   2.83  26.0     N   55.0   57.6   51.7   49.0  29.970  0.00  0.00     0     0.00      0     0.0  0.00   0.0   0.028   0.000   70.3    46   48.5   68.3   8.64  .0741    0.008   212    5    100.0   10 
 4/24/18  4:10a   60.6   60.9   60.6    34   32.1  16.0     N   2.67  29.0     N   54.9   57.4   51.7   49.0  29.973  0.00  0.00     0     0.00      0     0.0  0.00   0.0   0.031   0.000   70.3    46   48.5   68.3   8.64  .0742    0.000   211    5    100.0   10 
 4/24/18  4:20a   60.3   60.6   60.3    35   32.5  16.0     N   2.67  23.0     N   54.6   57.2   51.5   48.8  29.973  0.00  0.00     0     0.00      0     0.0  0.00   0.0   0.033   0.000   70.2    46   48.4   68.2   8.65  .0742    0.000   210    5    100.0   10 
 4/24/18  4:30a   60.4   60.4   60.3    34   31.9  16.0     N   2.67  26.0     N   54.7   57.2   51.5   48.7  29.971  0.00  0.00     0     0.00      0     0.0  0.00   0.0   0.032   0.000   70.2    46   48.4   68.2   8.65  .0742    0.000   214    5    100.0   10 
 4/24/18  4:40a   60.4   60.4   60.3    34   31.9  16.0     N   2.67  25.0     N   54.7   57.2   51.5   48.7  29.967  0.00  0.00     0     0.00      0     0.0  0.00   0.0   0.032   0.000   70.2    45   47.9   68.1   8.45  .0742    0.000   213    5    100.0   10 
 4/24/18  4:50a   60.2   60.4   60.2    34   31.7  16.0     N   2.67  25.0     N   54.4   57.0   51.2   48.4  29.964  0.00  0.00     0     0.00      0     0.0  0.00   0.0   0.033   0.000   70.1    45   47.8   67.9   8.45  .0742    0.000   209    5    100.0   10 
 4/24/18  5:00a   60.0   60.2   59.9    35   32.2  16.0     N   2.67  26.0     N   54.2   56.9   51.1   48.4  29.964  0.00  0.00     0     0.00      0     0.0  0.00   0.0   0.035   0.000   70.1    45   47.8   67.9   8.45  .0742    0.008   211    5    100.0   10 
 4/24/18  5:10a   59.9   60.0   59.8    35   32.2  16.0     N   2.67  33.0     N   54.1   56.8   51.0   48.2  29.966  0.00  0.00     0     0.00      0     0.0  0.00   0.0   0.035   0.000   70.1    45   47.8   67.9   8.45  .0742    0.000   211    5    100.0   10 
 4/24/18  5:20a   60.0   60.1   59.8    34   31.5  16.0     N   2.67  27.0     N   54.2   56.8   51.0   48.2  29.963  0.00  0.00     0     0.00      0     0.0  0.00   0.0   0.035   0.000   70.0    45   47.7   67.8   8.45  .0742    0.000   212    5    100.0   10 
 4/24/18  5:30a   59.9   60.0   59.8    34   31.4  16.0     N   2.67  26.0     N   54.1   56.7   50.9   48.1  29.966  0.00  0.00     0     0.00      0     0.0  0.00   0.0   0.035   0.000   70.0    45   47.7   67.8   8.45  .0742    0.000   213    5    100.0   10 
 4/24/18  5:40a   59.8   59.9   59.8    34   31.3  16.0     N   2.67  30.0     N   54.0   56.6   50.8   48.0  29.964  0.00  0.00     0     0.00      0     0.0  0.00   0.0   0.036   0.000   69.9    45   47.6   67.7   8.45  .0742    0.000   213    5    100.0   10 
 4/24/18  5:50a   59.8   59.9   59.8    34   31.3  16.0     N   2.67  25.0     N   54.0   56.6   50.8   48.0  29.963  0.00  0.00     0     0.00      0     0.0  0.00   0.0   0.036   0.000   69.9    45   47.6   67.7   8.45  .0742    0.000   210    5    100.0   10 
 4/24/18  6:00a   59.8   59.8   59.7    34   31.3  16.0     N   2.67  25.0     N   54.0   56.6   50.8   48.0  29.963  0.00  0.00     0     0.00      0     0.0  0.00   0.0   0.036   0.000   69.8    45   47.5   67.7   8.45  .0742    0.008   212    5    100.0   10 
 4/24/18  6:10a   59.7   59.8   59.7    34   31.3  16.0     N   2.67  27.0     N   53.9   56.5   50.7   47.9  29.962  0.00  0.00     0     0.00      0     0.0  0.00   0.0   0.037   0.000   69.8    45   47.5   67.7   8.45  .0742    0.000   209    5    100.0   10 
 4/24/18  6:20a   59.8   59.8   59.7    34   31.3  17.0     N   2.83  25.0     N   53.7   56.6   50.5   47.9  29.962  0.00  0.00     7     0.10     11     0.0  0.00   0.0   0.036   0.000   69.8    45   47.5   67.7   8.45  .0742    0.000   212    5    100.0   10 
 4/24/18  6:30a   59.8   59.8   59.6    33   30.6  17.0     N   2.83  28.0     N   53.7   56.5   50.4   47.9  29.964  0.00  0.00    16     0.23     21     0.0  0.00   0.0   0.036   0.000   69.7    45   47.4   67.6   8.46  .0743    0.000   213    5    100.0   10 
 4/24/18  6:40a   59.9   59.9   59.8    34   31.4  16.0     N   2.67  25.0     N   54.1   56.7   50.9   48.5  29.966  0.00  0.00    27     0.39     33     0.0  0.00   0.0   0.035   0.000   69.7    45   47.4   67.6   8.46  .0743    0.000   209    5    100.0   10 
 4/24/18  6:50a   59.9   60.0   59.8    33   30.7  16.0     N   2.67  28.0     N   54.1   56.6   50.8   48.6  29.967  0.00  0.00    45     0.65     54     0.0  0.00   0.0   0.035   0.000   69.7    45   47.4   67.6   8.46  .0743    0.000   212    5    100.0   10 
 4/24/18  7:00a   60.1   60.1   59.9    33   30.9  16.0     N   2.67  28.0     N   54.3   56.8   51.0   49.2  29.964  0.00  0.00    65     0.93     70     0.0  0.00   0.0   0.034   0.000   69.7    45   47.4   67.6   8.46  .0743    0.009   211    5    100.0   10 
 4/24/18  7:10a   60.3   60.3   60.1    33   31.0  16.0     N   2.67  28.0     N   54.6   57.0   51.3   49.6  29.968  0.00  0.00    72     1.03     76     0.0  0.00   0.0   0.033   0.000   69.7    45   47.4   67.6   8.46  .0743    0.000   211    5    100.0   10 
 4/24/18  7:20a   60.5   60.5   60.3    33   31.2  17.0     N   2.83  26.0     N   54.5   57.2   51.2   49.7  29.970  0.00  0.00    78     1.12     79     0.0  0.00   0.0   0.031   0.000   69.8    45   47.5   67.7   8.45  .0742    0.000   209    5    100.0   10 
 4/24/18  7:30a   60.5   60.6   60.5    33   31.2  17.0     N   2.83  25.0     N   54.5   57.2   51.2   49.7  29.974  0.00  0.00    80     1.15     83     0.0  0.00   0.0   0.031   0.000   69.7    45   47.4   67.6   8.46  .0743    0.000   213    5    100.0   10 
 4/24/18  7:40a   60.7   60.7   60.5    33   31.4  16.0     N   2.67  25.0     N   55.0   57.4   51.7   50.3  29.977  0.00  0.00    90     1.29     97     0.0  0.00   0.0   0.030   0.000   69.7    45   47.4   67.6   8.46  .0743    0.000   211    5    100.0   10 
 4/24/18  7:50a   61.0   61.0   60.7    33   31.7  16.0     N   2.67  24.0     N   55.4   57.6   52.0   51.1  29.978  0.00  0.00   120     1.72    162     0.0  0.00   0.0   0.028   0.000   69.7    45   47.4   67.6   8.46  .0743    0.000   210    5    100.0   10 
 4/24/18  8:00a   61.3   61.3   61.0    33   31.9  16.0     N   2.67  26.0     N   55.7   57.9   52.3   54.5  29.976  0.00  0.00   155     2.22    192     0.0  0.00   0.0   0.026   0.000   69.7    45   47.4   67.6   8.46  .0743    0.011   211    5    100.0   10 
 4/24/18  8:10a   61.9   61.9   61.3    33   32.5  16.0     N   2.67  26.0     N   56.4   58.5   53.0   57.2  29.974  0.00  0.00   224     3.21    236     0.0  0.00   0.0   0.022   0.000   69.6    45   47.3   67.5   8.46  .0743    0.000   212    5    100.0   10 
 4/24/18  8:20a   62.4   62.4   61.9    32   32.1  16.0     N   2.67  28.0     N   56.9   58.9   53.4   58.2  29.972  0.00  0.00   256     3.67    271     0.0  0.00   0.0   0.018   0.000   69.6    45   47.3   67.5   8.46  .0743    0.000   211    5    100.0   10 
 4/24/18  8:30a   62.9   63.0   62.5    32   32.6  16.0     N   2.67  23.0     N   57.5   59.4   54.0   59.3  29.981  0.00  0.00   282     4.04    313     0.0  0.00   0.0   0.015   0.000   69.7    45   47.4   67.6   8.46  .0743    0.000   213    5    100.0   10 
 4/24/18  8:40a   63.2   63.2   63.0    32   32.8  16.0     N   2.67  27.0     N   57.8   59.7   54.3   58.4  29.980  0.00  0.00   228     3.27    244     0.0  0.00   0.0   0.012   0.000   69.7    45   47.4   67.6   8.46  .0743    0.000   212    5    100.0   10 
 4/24/18  8:50a   63.3   63.3   63.2    32   32.9  16.0     N   2.67  26.0     N   58.0   59.8   54.5   58.7  29.976  0.00  0.00   233     3.34    253     0.0  0.00   0.0   0.012   0.000   69.7    45   47.4   67.6   8.46  .0743    0.000   211    5    100.0   10 
 4/24/18  9:00a   63.9   63.9   63.3    31   32.6  16.0     N   2.67  25.0     N   58.7   60.3   55.1   59.9  29.977  0.00  0.00   274     3.93    288     0.0  0.00   0.0   0.008   0.000   69.7    45   47.4   67.6   8.46  .0743    0.014   209    5    100.0   10 
 4/24/18  9:10a   64.7   64.7   63.9    31   33.3  15.0     N   2.50  22.0     N   59.9   61.1   56.3   62.0  29.974  0.00  0.00   344     4.93    380     0.0  0.00   0.0   0.002   0.000   69.8    45   47.5   67.7   8.45  .0743    0.000   212    5    100.0   10 
 4/24/18  9:20a   65.5   65.5   64.7    30   33.2  15.0     N   2.50  25.0     N   60.8   61.8   57.1   63.4  29.973  0.00  0.00   396     5.68    443     0.0  0.00   0.0   0.000   0.003   69.8    45   47.5   67.7   8.45  .0743    0.000   213    5    100.0   10 
 4/24/18  9:30a   66.4   66.4   65.5    30   34.0  14.0     N   2.33  27.0     N   62.2   62.8   58.6   66.8  29.978  0.00  0.00   490     7.02    506     0.0  0.00   0.0   0.000   0.010   69.9    45   47.6   67.7   8.45  .0743    0.000   210    5    100.0   10 
 4/24/18  9:40a   67.0   67.0   66.5    29   33.7  15.0     N   2.50  22.0     N   62.5   63.2   58.7   65.2  29.977  0.00  0.00   445     6.38    515     0.0  0.00   0.0   0.000   0.014   69.9    45   47.6   67.7   8.45  .0742    0.000   212    5    100.0   10 
 4/24/18  9:50a   68.1   68.1   67.0    29   34.6  14.0     N   2.33  21.0     N   64.1   64.4   60.4   68.4  29.974  0.00  0.00   527     7.55    582     0.0  0.00   0.0   0.000   0.022   69.9    45   47.6   67.7   8.45  .0742    0.000   214    5    100.0   10 
 4/24/18 10:00a   68.8   68.8   68.1    28   34.3  14.0     N   2.33  22.0     N   64.8   65.0   61.0   68.1  29.977  0.00  0.00   505     7.24    552     0.0  0.00   0.0   0.000   0.026   69.9    45   47.6   67.7   8.45  .0742    0.019   213    5    100.0   10 
 4/24/18 10:10a   69.8   69.8   68.8    27   34.3  14.0     N   2.33  24.0     N   65.9   65.9   62.0   70.0  29.980  0.00  0.00   575     8.24    596     0.0  0.00   0.0   0.000   0.033   69.9    45   47.6   67.7   8.45  .0743    0.000   211    5    100.0   10 
 4/24/18 10:20a   70.5   70.5   69.8    27   34.9  14.0     N   2.33  25.0     N   66.7   66.8   63.0   71.2  29.971  0.00  0.00   605     8.67    633     0.0  0.00   0.0   0.000   0.038   70.0    45   47.7   67.8   8.45  .0742    0.000   214    5    100.0   10 
 4/24/18 10:30a   71.3   71.3   70.5    27   35.6  14.0     N   2.33  20.0     N   67.5   67.9   64.1   72.7  29.972  0.00  0.00   652     9.35    684     0.0  0.00   0.0   0.000   0.044   70.0    45   47.7   67.8   8.45  .0742    0.000   213    5    100.0   10 
 4/24/18 10:40a   71.7   71.7   71.3    26   35.0  14.0     N   2.33  21.0     N   67.9   68.3   64.5   71.5  29.973  0.00  0.00   584     8.37    633     0.0  0.00   0.0   0.000   0.047   70.1    45   47.8   67.9   8.45  .0742    0.000   211    5    100.0   10 
 4/24/18 10:50a   72.4   72.4   71.7    26   35.6  13.0     N   2.17  23.0     N   69.0   69.3   65.9   73.5  29.972  0.00  0.00   627     8.99    731     0.0  0.00   0.0   0.000   0.051   70.1    45   47.8   67.9   8.45  .0742    0.000   212    5    100.0   10 
 4/24/18 11:00a   73.6   73.6   72.4    24   34.6  14.0     N   2.33  24.0     N   70.0   71.0   67.4   76.4  29.970  0.00  0.00   747    10.71    754     0.0  0.00   0.0   0.000   0.060   70.1    45   47.8   67.9   8.45  .0742    0.024   210    5    100.0   10 
 4/24/18 11:10a   74.2   74.2   73.6    24   35.1  14.0     N   2.33  25.0     N   70.6   71.8   68.2   76.7  29.970  0.00  0.00   740    10.61    754     0.7  0.05   1.6   0.000   0.064   70.2    45   47.9   68.1   8.45  .0742    0.000   211    5    100.0   10 
 4/24/18 11:20a   74.8   74.8   74.2    23   34.5  14.0     N   2.33  22.0     N   71.3   72.5   69.0   77.1  29.963  0.00  0.00   730    10.46    772     1.8  0.13   2.8   0.000   0.068   70.2    44   47.3   68.0   8.35  .0742    0.000   214    5    100.0   10 
 4/24/18 11:30a   75.7   75.7   74.8    23   35.3  14.0     N   2.33  28.0     N   72.3   73.8   70.4   79.4  29.965  0.00  0.00   806    11.55    817     3.7  0.26   4.2   0.000   0.074   70.2    44   47.3   68.0   8.35  .0742    0.000   212    5    100.0   10 
 4/24/18 11:40a   76.7   76.7   75.7    22   35.0  13.0     N   2.17  22.0     N   73.7   75.2   72.2   81.7  29.969  0.00  0.00   836    11.98    858     4.6  0.33   5.1   0.000   0.081   70.2    44   47.3   68.0   8.35  .0742    0.000   212    5    100.0   10 
 4/24/18 11:50a   77.8   77.8   76.7    22   35.9  12.0     N   2.00  23.0     N   75.3   75.9   73.4   83.5  29.967  0.00  0.00   875    12.54    891     5.4  0.39   5.6   0.000   0.089   70.3    44   47.3   68.1   8.34  .0742    0.000   211    5    100.0   10 
 4/24/18 12:00p   78.5   78.5   77.8    21   35.3  12.0     N   2.00  20.0     N   76.1   76.1   73.7   83.1  29.963  0.00  0.00   838    12.01    847     5.1  0.36   5.6   0.000   0.094   70.3    44   47.3   68.1   8.34  .0742    0.029   211    5    100.0   10 
 4/24/18 12:10p   79.2   79.2   78.5    21   35.9  12.0     N   2.00  19.0     N   76.8   76.4   74.0   83.5  29.966  0.00  0.00   866    12.41    879     5.9  0.42   6.2   0.000   0.099   70.3    44   47.3   68.1   8.34  .0742    0.000   212    5    100.0   10 
 4/24/18 12:20p   79.9   79.9   79.1    20   35.2  11.0     N   1.83  20.0     N   78.0   76.9   75.0   84.6  29.963  0.00  0.00   857    12.29    893     6.4  0.46   6.6   0.000   0.103   70.4    44   47.4   68.2   8.34  .0741    0.000   212    5    100.0   10 
 4/24/18 12:30p   80.3   80.3   79.8    19   34.3  11.0     N   1.83  20.0     N   78.4   77.2   75.3   85.2  29.963  0.00  0.00   888    12.73    902     6.8  0.49   7.0   0.000   0.106   70.5    44   47.5   68.4   8.34  .0741    0.000   212    5    100.0   10 
 4/24/18 12:40p   80.9   81.0   80.3    20   36.1   9.0     N   1.50  17.0     N   79.9   77.8   76.8   86.5  29.960  0.00  0.00   835    11.97    898     7.0  0.50   7.2   0.000   0.110   70.5    44   47.5   68.4   8.34  .0741    0.000   212    5    100.0   10 
 4/24/18 12:50p   81.6   81.7   81.0    19   35.3   9.0     N   1.50  16.0     N   80.7   78.4   77.5   88.1  29.955  0.00  0.00   900    12.90    912     7.4  0.53   7.5   0.000   0.115   70.6    44   47.6   68.5   8.34  .0741    0.000   212    5    100.0   10 
 4/24/18  1:00p   82.3   82.3   81.6    19   35.9   8.0     N   1.33  15.0     N   82.0   79.1   78.8   90.0  29.956  0.00  0.00   913    13.09    926     7.6  0.54   7.7   0.000   0.120   70.7    44   47.7   68.6   8.34  .0741    0.030   212    5    100.0   10 
 4/24/18  1:10p   83.0   83.0   82.3    18   35.1   7.0     N   1.17  16.0     N   83.0   79.8   79.8   91.3  29.954  0.00  0.00   911    13.06    933     7.9  0.56   8.0   0.000   0.125   70.8    44   47.8   68.7   8.33  .0741    0.000   212    5    100.0   10 
 4/24/18  1:20p   83.6   83.6   83.1    18   35.6   5.0     N   0.83  15.0     N   83.6   80.5   80.5   92.3  29.959  0.00  0.00   909    13.03    942     7.7  0.55   7.9   0.000   0.129   71.0    44   48.0   69.0   8.33  .0740    0.000   214    5    100.0   10 
 4/24/18  1:30p   75.2   83.7   75.2    30   41.6   5.0     N   0.83  14.0     N   75.2   73.5   73.5   85.0  29.958  0.00  0.00   878    12.59    946     7.1  0.51   7.8   0.000   0.071   71.2    44   48.2   69.3   8.33  .0740    0.000   212    5    100.0   10 
 4/24/18  1:40p   69.5   75.1   69.5    40   44.1   5.0     N   0.83  10.0     N   69.5   66.9   66.9   78.0  29.957  0.00  0.00   838    12.01    877     5.3  0.38   6.1   0.000   0.031   71.4    44   48.3   69.6   8.32  .0740    0.000   211    5    100.0   10 
 4/24/18  1:50p   69.5   70.1   69.1    40   44.1   2.0     N   0.33   8.0     N   69.5   66.9   66.9   77.2  29.960  0.00  0.00   790    11.32    863     4.3  0.31   4.8   0.000   0.031   71.6    44   48.5   69.9   8.32  .0739    0.000   211    5    100.0   10 
 4/24/18  2:00p   67.0   69.4   67.0    47   46.1   2.0     N   0.33   4.0     N   67.0   65.3   65.3   77.1  29.961  0.00  0.00   863    12.37    891     4.9  0.35   5.1   0.000   0.014   71.7    44   48.6   70.0   8.32  .0739    0.025   212    5    100.0   10 
 4/24/18  2:10p   66.6   67.7   66.6    51   47.9   2.0     N   0.33   8.0     N   66.6   65.2   65.2   76.6  29.960  0.00  0.00   828    11.87    851     4.6  0.33   4.8   0.000   0.011   71.8    44   48.7   70.2   8.31  .0739    0.000   212    5    100.0   10 
 4/24/18  2:20p   63.3   66.5   63.3    59   48.7   3.0     N   0.50   6.0     N   63.3   62.2   62.2   74.4  29.964  0.00  0.00   858    12.30    884     4.3  0.31   4.5   0.012   0.000   72.0    44   48.9   70.5   8.31  .0739    0.000   214    5    100.0   10 
 4/24/18  2:30p   63.6   63.6   62.9    59   49.0   2.0     N   0.33   5.0     N   63.6   62.5   62.5   74.6  29.959  0.00  0.00   837    12.00    851     3.5  0.25   3.6   0.010   0.000   72.1    45   49.6   70.8   8.45  .0738    0.000   213    5    100.0   10 
 4/24/18  2:40p   67.6   67.6   63.6    52   49.3   0.0     N   0.00   2.0     N   67.6   66.5   66.5   78.8  29.957  0.00  0.00   836    11.98    847     3.3  0.24   3.6   0.000   0.018   72.3    45   49.8   71.1   8.45  .0738    0.000   213    5    100.0   10 
 4/24/18  2:50p   66.9   69.0   66.9    50   47.6   2.0     N   0.33   5.0     N   66.9   65.5   65.5   77.9  29.958  0.00  0.00   827    11.86    844     3.3  0.24   3.6   0.000   0.013   72.4    45   49.9   71.2   8.45  .0738    0.000   212    5    100.0   10 
 4/24/18  3:00p   64.5   66.8   64.5    55   48.0   2.0     N   0.33   4.0     N   64.5   63.3   63.3   75.8  29.955  0.00  0.00   812    11.64    831     2.4  0.17   3.0   0.003   0.000   72.6    45   50.0   71.5   8.45  .0737    0.019   213    5    100.0   10 
 4/24/18  3:10p   66.2   66.5   64.6    51   47.5   2.0     N   0.33   4.0     N   66.2   64.7   64.7   77.1  29.956  0.00  0.00   790    11.32    800     1.0  0.07   1.7   0.000   0.008   72.8    45   50.2   71.8   8.45  .0737    0.000   212    5    100.0   10 
 4/24/18  3:20p   66.4   66.4   66.1    53   48.7   2.0     N   0.33   4.0     N   66.4   65.2   65.2   77.5  29.956  0.00  0.00   760    10.89    770     0.0  0.00   0.0   0.000   0.010   73.0    45   50.4   72.1   8.45  .0737    0.000   212    5    100.0   10 
 4/24/18  3:30p   65.1   66.4   65.1    56   49.0   2.0     N   0.33   4.0     N   65.1   64.0   64.0   76.9  29.954  0.00  0.00   765    10.97    789     0.0  0.00   0.0   0.000   0.001   73.2    45   50.6   72.4   8.45  .0736    0.000   212    5    100.0   10 
 4/24/18  3:40p   65.8   66.2   65.1    55   49.2   1.0     N   0.17   4.0     N   65.8   64.7   64.7   77.8  29.953  0.00  0.00   754    10.81    768     0.0  0.00   0.0   0.000   0.006   73.3    45   50.7   72.5   8.45  .0736    0.000   212    5    100.0   10 
 4/24/18  3:50p   63.7   65.7   63.7    61   50.0   1.0     N   0.17   3.0     N   63.7   62.8   62.8   75.8  29.954  0.00  0.00   724    10.38    756     0.0  0.00   0.0   0.009   0.000   73.5    45   50.9   72.8   8.45  .0736    0.000   212    5    100.0   10 
 4/24/18  4:00p   63.8   63.8   63.6    62   50.5   0.0     N   0.00   3.0     N   63.8   63.0   63.0   77.1  29.952  0.00  0.00   745    10.68    758     0.0  0.00   0.0   0.008   0.000   73.7    46   51.6   73.1   8.58  .0735    0.017   211    5    100.0   10 
 4/24/18  4:10p   62.8   63.8   62.8    62   49.6   4.0     N   0.67  15.0     N   62.8   61.9   61.9   75.9  29.967  0.00  0.00   712    10.21    726     0.0  0.00   0.0   0.015   0.000   73.9    46   51.8   73.3   8.57  .0735    0.000   213    5    100.0   10 
 4/24/18  4:20p   61.4   62.8   61.4    64   49.1   7.0     N   1.17  13.0     N   60.9   60.6   60.1   72.7  29.968  0.00  0.00   641     9.19    682     0.0  0.00   0.0   0.025   0.000   74.1    46   52.0   73.6   8.57  .0735    0.000   211    5    100.0   10 
 4/24/18  4:30p   58.3   61.3   58.3    72   49.3  13.0     N   2.17  18.0     N   53.3   57.6   52.6   60.3  29.968  0.00  0.00   468     6.71    538     0.0  0.00   0.0   0.047   0.000   74.2    45   51.5   73.7   8.45  .0735    0.000   211    5    100.0   10 
 4/24/18  4:40p   58.6   58.7   58.2    73   50.0  13.0     N   2.17  21.0     N   53.7   58.0   53.1   61.3  29.971  0.00  0.00   496     7.11    617     0.0  0.00   0.0   0.044   0.000   74.2    45   51.5   73.7   8.45  .0735    0.000   212    5    100.0   10 
 4/24/18  4:50p   58.4   58.8   58.4    72   49.4  14.0     N   2.33  19.0     N   53.1   57.7   52.4   62.9  29.969  0.00  0.00   591     8.47    629     0.0  0.00   0.0   0.046   0.000   74.2    45   51.5   73.7   8.45  .0735    0.000   210    5    100.0   10 
 4/24/18  5:00p   58.1   58.6   58.1    72   49.1  14.0     N   2.33  19.0     N   52.7   57.4   52.0   58.5  29.972  0.00  0.00   341     4.89    461     0.0  0.00   0.0   0.048   0.000   74.1    45   51.4   73.5   8.45  .0735    0.014   211    5    100.0   10 
 4/24/18  5:10p   58.0   58.1   57.8    72   49.0  14.0     N   2.33  18.0     N   52.6   57.3   51.9   56.6  29.968  0.00  0.00   238     3.41    283     0.0  0.00   0.0   0.049   0.000   74.0    45   51.3   73.4   8.45  .0735    0.000   211    5    100.0   10 
 4/24/18  5:20p   58.1   58.2   57.9    72   49.1  13.0     N   2.17  20.0     N   53.1   57.4   52.4   58.1  29.967  0.00  0.00   271     3.88    315     0.0  0.00   0.0   0.048   0.000   74.1    45   51.4   73.5   8.45  .0735    0.000   211    5    100.0   10 
 4/24/18  5:30p   57.8   58.2   57.7    73   49.2  13.0     N   2.17  20.0     N   52.8   57.2   52.2   58.2  29.968  0.00  0.00   288     4.13    329     0.0  0.00   0.0   0.050   0.000   74.1    45   51.4   73.5   8.45  .0735    0.000   211    5    100.0   10 
 4/24/18  5:40p   58.1   58.2   57.9    71   48.7  13.0     N   2.17  19.0     N   53.1   57.4   52.4   57.8  29.966  0.00  0.00   250     3.58    265     0.0  0.00   0.0   0.048   0.000   74.2    45   51.5   73.7   8.45  .0735    0.000   213    5    100.0   10 
 4/24/18  5:50p   57.8   58.2   57.7    73   49.2  13.0     N   2.17  18.0     N   52.8   57.2   52.2   57.3  29.965  0.00  0.00   233     3.34    251     0.0  0.00   0.0   0.050   0.000   74.3    45   51.6   73.8   8.45  .0735    0.000   212    5    100.0   10 
 4/24/18  6:00p   57.8   57.8   57.7    73   49.2  13.0     N   2.17  18.0     N   52.8   57.2   52.2   57.4  29.965  0.00  0.00   243     3.48    283     0.0  0.00   0.0   0.050   0.000   74.3    45   51.6   73.8   8.45  .0735    0.008   209    5    100.0   10 
 4/24/18  6:10p   58.1   58.3   57.8    71   48.7  13.0     N   2.17  19.0     N   53.1   57.4   52.4   61.1  29.964  0.00  0.00   339     4.86    406     0.0  0.00   0.0   0.048   0.000   74.4    46   52.3   74.0   8.56  .0734    0.000   209    5    100.0   10 
 4/24/18  6:20p   58.1   58.2   58.0    70   48.4  13.0     N   2.17  18.0     N   53.1   57.3   52.3   56.1  29.960  0.00  0.00   184     2.64    234     0.0  0.00   0.0   0.048   0.000   74.5    46   52.4   74.1   8.56  .0734    0.000   208    5    100.0   10 
 4/24/18  6:30p   58.0   58.1   57.9    69   47.9  11.0     N   1.83  17.0     N   54.0   57.2   53.2   56.1  29.960  0.00  0.00   146     2.09    156     0.0  0.00   0.0   0.049   0.000   74.5    46   52.4   74.1   8.56  .0734    0.000   209    5    100.0   10 
 4/24/18  6:40p   57.9   58.0   57.8    69   47.8  11.0     N   1.83  16.0     N   53.9   57.1   53.1   52.9  29.962  0.00  0.00   142     2.04    155     0.0  0.00   0.0   0.049   0.000   74.6    46   52.4   74.3   8.56  .0734    0.000   213    5    100.0   10 
 4/24/18  6:50p   57.7   57.9   57.7    70   48.0   9.0     N   1.50  14.0     N   54.9   56.9   54.1   53.5  29.960  0.00  0.00   117     1.68    134     0.0  0.00   0.0   0.051   0.000   74.6    46   52.4   74.3   8.56  .0734    0.000   211    5    100.0   10 
 4/24/18  7:00p   57.1   57.7   57.1    72   48.2   7.0     N   1.17  12.0     N   55.7   56.4   55.0   53.9  29.962  0.00  0.00    98     1.40    105     0.0  0.00   0.0   0.055   0.000   74.6    46   52.4   74.3   8.56  .0734    0.006   207    5    100.0   10 
 4/24/18  7:10p   56.9   57.1   56.9    75   49.1   7.0     N   1.17  12.0     N   55.5   56.4   55.0   53.6  29.960  0.00  0.00    78     1.12     88     0.0  0.00   0.0   0.056   0.000   74.7    46   52.5   74.4   8.56  .0734    0.000   212    5    100.0   10 
 4/24/18  7:20p   56.4   56.9   56.4    77   49.3   9.0     N   1.50  14.0     N   53.4   55.9   52.9   51.3  29.963  0.00  0.00    60     0.86     67     0.0  0.00   0.0   0.060   0.000   74.7    46   52.5   74.4   8.56  .0734    0.000   212    5    100.0   10 
 4/24/18  7:30p   56.2   56.4   56.0    79   49.8  11.0     N   1.83  16.0     N   51.9   55.8   51.5   49.8  29.962  0.00  0.00    50     0.72     54     0.0  0.00   0.0   0.061   0.000   74.7    46   52.5   74.4   8.56  .0734    0.000   210    5    100.0   10 
 4/24/18  7:40p   56.6   56.8   56.3    78   49.8  12.0     N   2.00  17.0     N   51.9   56.2   51.5   49.7  29.958  0.00  0.00    42     0.60     46     0.0  0.00   0.0   0.058   0.000   74.7    46   52.5   74.4   8.56  .0734    0.000   213    5    100.0   10 
 4/24/18  7:50p   56.0   56.6   56.0    80   49.9  14.0     N   2.33  22.0     N   50.3   55.7   50.0   48.2  29.963  0.00  0.00    32     0.46     37     0.0  0.00   0.0   0.063   0.000   74.7    46   52.5   74.4   8.56  .0734    0.000   212    5    100.0   10 
 4/24/18  8:00p   55.5   56.0   55.5    83   50.4  17.0     N   2.83  24.0     N   48.8   55.3   48.6   46.7  29.960  0.00  0.00    18     0.26     25     0.0  0.00   0.0   0.066   0.000   74.7    46   52.5   74.4   8.56  .0734    0.003   208    5    100.0   10 
 4/24/18  8:10p   55.4   55.5   55.4    84   50.6  18.0     N   3.00  24.0     N   48.4   55.3   48.3   46.3  29.964  0.00  0.00     4     0.06     11     0.0  0.00   0.0   0.067   0.000   74.7    46   52.5   74.4   8.56  .0734    0.000   212    5    100.0   10 
 4/24/18  8:20p   55.3   55.4   55.2    85   50.9  18.0     N   3.00  22.0     N   48.3   55.2   48.2   46.1  29.966  0.00  0.00     0     0.00      0     0.0  0.00   0.0   0.067   0.000   74.6    46   52.4   74.3   8.56  .0734    0.000   212    5    100.0   10 
 4/24/18  8:30p   55.5   55.6   55.3    85   51.1  17.0     N   2.83  22.0     N   48.8   55.4   48.7   46.6  29.971  0.00  0.00     0     0.00      0     0.0  0.00   0.0   0.066   0.000   74.6    46   52.4   74.3   8.56  .0734    0.000   211    5    100.0   10 
 4/24/18  8:40p   55.0   55.5   55.0    86   50.9  17.0     N   2.83  22.0     N   48.3   54.9   48.2   46.0  29.972  0.00  0.00     0     0.00      0     0.0  0.00   0.0   0.069   0.000   74.5    46   52.4   74.1   8.56  .0734    0.000   213    5    100.0   10 
 4/24/18  8:50p   55.1   55.1   55.0    87   51.3  19.0     N   3.17  26.0     N   47.8   55.1   47.8   45.8  29.976  0.00  0.00     0     0.00      0     0.0  0.00   0.0   0.069   0.000   74.5    46   52.4   74.1   8.56  .0734    0.000   213    5    100.0   10 
 4/24/18  9:00p   55.1   55.1   54.9    87   51.3  19.0     N   3.17  25.0     N   47.8   55.1   47.8   45.8  29.979  0.00  0.00     0     0.00      0     0.0  0.00   0.0   0.069   0.000   74.4    46   52.3   74.0   8.56  .0735    0.002   209    5    100.0   10 
 4/24/18  9:10p   55.0   55.2   55.0    87   51.2  19.0     N   3.17  24.0     N   47.7   55.0   47.7   45.7  29.983  0.00  0.00     0     0.00      0     0.0  0.00   0.0   0.069   0.000   74.4    46   52.3   74.0   8.56  .0735    0.000   214    5    100.0   10 
 4/24/18  9:20p   54.9   55.0   54.9    88   51.4  18.0     N   3.00  23.0     N   47.9   54.9   47.9   45.9  29.985  0.00  0.00     0     0.00      0     0.0  0.00   0.0   0.070   0.000   74.4    46   52.3   74.0   8.56  .0735    0.000   213    5    100.0   10 
 4/24/18  9:30p   54.9   55.0   54.9    88   51.4  17.0     N   2.83  22.0     N   48.2   54.9   48.2   46.1  29.986  0.00  0.00     0     0.00      0     0.0  0.00   0.0   0.070   0.000   74.3    46   52.2   73.9   8.56  .0735    0.000   210    5    100.0   10 
 4/24/18  9:40p   54.7   54.9   54.7    88   51.2  17.0     N   2.83  22.0     N   47.9   54.7   47.9   45.8  29.989  0.00  0.00     0     0.00      0     0.0  0.00   0.0   0.072   0.000   74.3    46   52.2   73.9   8.56  .0735    0.000   212    5    100.0   10 
 4/24/18  9:50p   54.3   54.8   54.3    88   50.8  16.0     N   2.67  22.0     N   47.8   54.3   47.8   45.6  29.993  0.00  0.00     0     0.00      0     0.0  0.00   0.0   0.074   0.000   74.2    46   52.1   73.7   8.57  .0735    0.000   209    5    100.0   10 
 4/24/18 10:00p   53.2   54.3   53.2    90   50.3  14.0     N   2.33  20.0     N   47.1   53.3   47.2   44.8  29.998  0.00  0.00     0     0.00      0     0.0  0.00   0.0   0.082   0.000   74.2    46   52.1   73.7   8.57  .0736    0.001   208    5    100.0   10 
 4/24/18 10:10p   52.1   53.2   52.1    92   49.8  14.0     N   2.33  21.0     N   45.9   52.3   46.1   43.7  30.001  0.00  0.00     0     0.00      0     0.0  0.00   0.0   0.090   0.000   74.2    46   52.1   73.7   8.57  .0736    0.000   212    5    100.0   10 
 4/24/18 10:20p   51.8   52.1   51.8    93   49.8  15.0     N   2.50  21.0     N   45.3   52.1   45.6   43.3  30.005  0.00  0.00     0     0.00      0     0.0  0.00   0.0   0.092   0.000   74.1    46   52.0   73.6   8.57  .0736    0.000   211    5    100.0   10 
 4/24/18 10:30p   51.4   51.8   51.4    93   49.4  17.0     N   2.83  25.0     N   44.2   51.7   44.5   42.3  30.007  0.00  0.00     0     0.00      0     0.0  0.00   0.0   0.094   0.000   74.0    46   51.9   73.5   8.57  .0736    0.000   211    5    100.0   10 
 4/24/18 10:40p   51.1   51.4   51.1    94   49.4  17.0     N   2.83  23.0     N   43.8   51.5   44.2   42.0  30.004  0.00  0.00     0     0.00      0     0.0  0.00   0.0   0.097   0.000   73.9    46   51.8   73.3   8.57  .0736    0.000   208    5    100.0   10 
 4/24/18 10:50p   51.0   51.1   51.0    94   49.3  17.0     N   2.83  24.0     N   43.7   51.4   44.1   41.9  30.006  0.00  0.00     0     0.00      0     0.0  0.00   0.0   0.097   0.000   73.9    46   51.8   73.3   8.57  .0736    0.000   211    5    100.0   10 
 4/24/18 11:00p   50.9   51.1   50.9    95   49.5  18.0     N   3.00  24.0     N   43.4   51.3   43.8   41.7  30.005  0.00  0.00     0     0.00      0     0.0  0.00   0.0   0.098   0.000   73.8    46   51.7   73.2   8.57  .0736    0.001   212    5    100.0   10 
 4/24/18 11:10p   50.7   50.9   50.7    95   49.3  18.0     N   3.00  26.0     N   43.1   51.1   43.5   41.4  30.007  0.00  0.00     0     0.00      0     0.0  0.00   0.0   0.099   0.000   73.8    46   51.7   73.2   8.57  .0736    0.000   212    5    100.0   10 
 4/24/18 11:20p   50.7   50.8   50.6    95   49.3  18.0     N   3.00  25.0     N   43.1   51.1   43.5   41.4  30.010  0.00  0.00     0     0.00      0     0.0  0.00   0.0   0.099   0.000   73.7    46   51.6   73.1   8.58  .0737    0.000   212    5    100.0   10 
 4/24/18 11:30p   50.7   50.8   50.6    95   49.3  18.0     N   3.00  23.0     N   43.1   51.1   43.5   41.4  30.010  0.00  0.00     0     0.00      0     0.0  0.00   0.0   0.099   0.000   73.6    46   51.5   72.9   8.58  .0737    0.000   212    5    100.0   10 
 4/24/18 11:40p   50.8   50.8   50.6    95   49.4  17.0     N   2.83  23.0     N   43.5   51.2   43.9   41.7  30.013  0.00  0.00     0     0.00      0     0.0  0.00   0.0   0.099   0.000   73.6    46   51.5   72.9   8.58  .0737    0.000   213    5    100.0   10 
 4/24/18 11:50p   50.5   50.8   50.5    96   49.4  18.0     N   3.00  23.0     N   42.9   51.0   43.4   41.3  30.015  0.00  0.00     0     0.00      0     0.0  0.00   0.0   0.101   0.000   73.5    46   51.4   72.8   8.58  .0737    0.000   212    5    100.0   10 
 4/25/18 12:00a   50.6   50.6   50.4    96   49.5  17.0     N   2.83  23.0     N   43.3   51.1   43.8   41.6  30.014  0.00  0.00     0     0.00      0     0.0  0.00   0.0   0.100   0.000   73.5    46   51.4   72.8   8.58  .0737    0.001   212    5    100.0   10 
 4/25/18 12:10a   50.5   50.6   50.5    96   49.4  17.0     N   2.83  23.0     N   43.2   51.0   43.7   41.5  30.022  0.00  0.00     0     0.00      0     0.0  0.00   0.0   0.101   0.000   73.4    46   51.4   72.7   8.58  .0738    0.000   210    5    100.0   10 
 4/25/18 12:20a   50.5   50.5   50.4    96   49.4  17.0     N   2.83  23.0     N   43.2   51.0   43.7   41.5  30.021  0.00  0.00     0     0.00      0     0.0  0.00   0.0   0.101   0.000   73.3    46   51.3   72.6   8.58  .0738    0.000   210    5    100.0   10 
 4/25/18 12:30a   50.4   50.5   50.4    96   49.3  16.0     N   2.67  23.0     N   43.3   50.9   43.8   41.6  30.020  0.00  0.00     0     0.00      0     0.0  0.00   0.0   0.101   0.000   73.2    46   51.2   72.4   8.59  .0738    0.000   213    5    100.0   10 
 4/25/18 12:40a   50.4   50.5   50.4    96   49.3  15.0     N   2.50  20.0     N   43.6   50.9   44.1   41.8  30.021  0.00  0.00     0     0.00      0     0.0  0.00   0.0   0.101   0.000   73.2    46   51.2   72.4   8.59  .0738    0.000   213    5    100.0   10 
 4/25/18 12:50a   50.4   50.5   50.4    96   49.3  14.0     N   2.33  18.0     N   44.0   50.9   44.5   42.1  30.021  0.00  0.00     0     0.00      0     0.0  0.00   0.0   0.101   0.000   73.1    46   51.1   72.3   8.59  .0738    0.000   210    5    100.0   10 
 4/25/18  1:00a   50.5   50.5   50.4    96   49.4  14.0     N   2.33  19.0     N   44.1   51.0   44.6   42.2  30.027  0.00  0.00     0     0.00      0     0.0  0.00   0.0   0.101   0.000   73.1    46   51.1   72.3   8.59  .0738    0.000   213    5    100.0   10 
 4/25/18  1:10a   50.5   50.5   50.4    96   49.4  14.0     N   2.33  18.0     N   44.1   51.0   44.6   42.2  30.028  0.00  0.00     0     0.00      0     0.0  0.00   0.0   0.101   0.000   73.0    46   51.0   72.2   8.59  .0738    0.000   212    5    100.0   10 
 4/25/18  1:20a   50.3   50.5   50.3    96   49.2  14.0     N   2.33  19.0     N   43.9   50.8   44.4   42.0  30.027  0.00  0.00     0     0.00      0     0.0  0.00   0.0   0.102   0.000   72.9    46   50.9   72.0   8.59  .0738    0.000   212    5    100.0   10 
 4/25/18  1:30a   50.1   50.3   50.1    96   49.0  13.0     N   2.17  17.0     N   44.0   50.6   44.5   42.0  30.029  0.00  0.00     0     0.00      0     0.0  0.00   0.0   0.103   0.000   72.8    46   50.8   71.9   8.59  .0739    0.000   213    5    100.0   10 
 4/25/18  1:40a   50.2   50.2   50.1    96   49.1  13.0     N   2.17  17.0     N   44.1   50.7   44.6   42.1  30.029  0.00  0.00     0     0.00      0     0.0  0.00   0.0   0.103   0.000   72.8    46   50.8   71.9   8.59  .0739    0.000   212    5    100.0   10 
 4/25/18  1:50a   50.2   50.3   50.2    96   49.1  14.0     N   2.33  18.0     N   43.7   50.7   44.2   41.8  30.034  0.00  0.00     0     0.00      0     0.0  0.00   0.0   0.103   0.000   72.7    46   50.7   71.7   8.60  .0739    0.000   213    5    100.0   10 
 4/25/18  2:00a   50.2   50.3   50.2    96   49.1  15.0     N   2.50  19.0     N   43.4   50.7   43.9   41.6  30.038  0.00  0.00     0     0.00      0     0.0  0.00   0.0   0.103   0.000   72.7    46   50.7   71.7   8.60  .0739    0.000   214    5    100.0   10 
 4/25/18  2:10a   50.1   50.3   50.0    96   49.0  14.0     N   2.33  20.0     N   43.6   50.6   44.1   41.7  30.032  0.00  0.00     0     0.00      0     0.0  0.00   0.0   0.103   0.000   72.6    46   50.6   71.6   8.60  .0739    0.000   211    5    100.0   10 
 4/25/18  2:20a   50.1   50.1   50.0    96   49.0  13.0     N   2.17  18.0     N   44.0   50.6   44.5   42.0  30.030  0.00  0.00     0     0.00      0     0.0  0.00   0.0   0.103   0.000   72.5    46   50.5   71.4   8.60  .0739    0.000   210    5    100.0   10 
 4/25/18  2:30a   50.0   50.1   50.0    96   48.9  14.0     N   2.33  20.0     N   43.5   50.5   44.0   41.5  30.032  0.00  0.00     0     0.00      0     0.0  0.00   0.0   0.104   0.000   72.5    46   50.5   71.4   8.60  .0739    0.000   213    5    100.0   10 
 4/25/18  2:40a   50.0   50.1   49.9    96   48.9  15.0     N   2.50  22.0     N   43.2   50.5   43.7   41.3  30.031  0.00  0.00     0     0.00      0     0.0  0.00   0.0   0.104   0.000   72.4    46   50.4   71.3   8.60  .0739    0.000   212    5    100.0   10 
 4/25/18  2:50a   50.0   50.1   50.0    96   48.9  13.0     N   2.17  19.0     N   43.9   50.5   44.4   41.9  30.032  0.00  0.00     0     0.00      0     0.0  0.00   0.0   0.104   0.000   72.3    46   50.4   71.1   8.60  .0740    0.000   211    5    100.0   10 
 4/25/18  3:00a   50.1   50.1   50.0    96   49.0  12.0     N   2.00  17.0     N   44.4   50.6   44.9   42.4  30.034  0.00  0.00     0     0.00      0     0.0  0.00   0.0   0.103   0.000   72.3    46   50.4   71.1   8.60  .0740    0.000   214    5    100.0   10 
Email: AdamSPAM@StormwatchersRetreat.com (To send me email remove the word 'SPAM' from my email address.)